Tiempo atmosférico en la estación meteorológica de Azpeitia, Gipuzkoa (180 m.)



Fecha
DESCASC
Temp. máxima en grados centígrados (hora)
DESCASC
Temp. mínima en grados centígrados (hora)
DESCASC
Temp. media en grados centígrados
DESCASC
Racha de viento máxima en m/sg (hora)
DESCASC
Velocidad máxima media en intervalos de 10 minutos(hora)
DESCASC
Precipitaciones diarias en mm
DESCASC
Precipitaciones de 00:00 a 06:00 en mm
DESCASC
Precipitaciones de 06:00 a 12:00 en mm
DESCASC
Precipitaciones de 12:00 a 18:00 en mm
DESCASC
Precipitaciones de 18:00 a 24:00 en mm
DESCASC
18-01-2018 13.6 (15:30) 2.5 (08:30) 8.1 5.83 (17:00) 1.67 (15:50) 0 0 0 0 0
17-01-2018 12.4 (01:10) 6.6 (23:59) 9.5 13.33 (03:00) 5.83 (03:00) 10.8 3.8 5 1.8 0.2
16-01-2018 12.6 (15:10) 9.1 (00:00) 10.9 3.89 (20:50) 1.67 (19:10) 0.4 0 0 0 0.4
15-01-2018 11.1 (15:10) 5.1 (06:40) 8.1 3.61 (13:40) 1.67 (16:20) 1 0.8 0.2 0 0
14-01-2018 7.5 (13:10) 4.7 (00:00) 6.1 6.39 (20:20) 2.5 (12:00) 30.8 9.2 6.6 6.2 8.8
13-01-2018 10.1 (11:10) 4.5 (00:00) 7.3 9.17 (07:20) 3.33 (07:30) 5.8 0 0 0 5.8
12-01-2018 11.6 (14:30) 3.8 (00:00) 7.7 3.33 (07:50) 1.67 (07:50) 5.4 4 1.4 0 0
11-01-2018 6.6 (11:20) 3.5 (00:00) 5 5.28 (10:40) 2.78 (11:10) 17.2 0.2 1.8 12.4 2.8
10-01-2018 11.9 (14:00) 5.8 (00:00) 8.8 13.61 (16:40) 3.89 (18:00) 6.8 0 0 4.2 2.6
09-01-2018 9.9 (14:50) 0.7 (00:00) 5.3 10 (15:00) 3.33 (14:40) 2 0 0 1.4 0.6
08-01-2018 11 (14:50) 1.2 (00:00) 6.1 2.5 (19:30) 1.67 (19:30) 0 0 0 0 0
07-01-2018 4.7 (15:50) 0.5 (00:00) 2.6 3.61 (02:40) 1.67 (13:30) 12.2 11.4 0.8 0 0
06-01-2018 7.5 (00:00) 0.3 (00:00) 3.9 5.28 (11:40) 2.78 (11:40) 52.8 9.4 8 18.8 16.6
05-01-2018 15.6 (01:10) 7.5 (00:00) 11.6 12.22 (04:20) 3.89 (06:30) 17.8 0 1.6 10.2 6
04-01-2018 18.5 (14:40) 11.3 (09:20) 14.9 7.22 (23:59) 2.22 (19:50) 0 0 0 0 0
03-01-2018 17.5 (12:10) 11.4 (00:00) 14.4 4.44 (11:10) 1.67 (11:10) 3.6 0 0 3.4 0.2
02-01-2018 13.9 (17:30) 9.3 (00:00) 11.6 3.61 (20:10) 1.94 (03:50) 11.4 6.6 3.4 1.4 0
01-01-2018 13.9 (14:20) 5 (00:00) 9.4 15.28 (18:50) 6.39 (18:50) 17 0 0 11.8 5.2
31-12-2017 17 (14:20) 6.8 (00:00) 11.9 11.94 (12:40) 4.72 (15:30) 7.2 0 0 6.4 0.8
30-12-2017 18.7 (15:00) 11.6 (00:00) 15.2 4.17 (21:50) 1.67 (22:00) 0 0 0 0 0
29-12-2017 15.8 (15:10) 8 (00:00) 11.9 9.44 (12:20) 3.89 (12:20) 5.8 0.8 5 0 0
28-12-2017 10.6 (16:10) 4.9 (00:00) 7.8 11.39 (20:40) 5 (15:50) 21.4 5 5 8.4 3
27-12-2017 11.6 (00:10) 5.2 (00:00) 8.4 16.11 (13:30) 7.5 (13:30) 33.8 9.4 9.6 4.6 10.2
26-12-2017 11.5 (23:59) 4.6 (00:00) 8 14.17 (21:50) 4.17 (22:30) 4.6 3.6 0 0 1
25-12-2017 13.7 (14:40) 2.4 (00:00) 8 8.33 (17:50) 3.89 (17:50) 1.2 0 0 0 1.2
24-12-2017 13.4 (14:50) 3 (00:00) 8.2 2.78 (12:30) 1.67 (12:30) 0 0 0 0 0

Gráficas

Temp. máximas Temp. mínimas Temp. medias Precipitaciones Rachas de viento máximas Velocidades máximas media en intervalos de 10 minutos

Datos horarios

Fecha y hora oficial Temperatura (ºC) Velocidad del viento (km/h) Dirección del viento Racha (km/h) Dirección de racha Precipitación (mm) Presión (hPa) Tendencia (hPa) Humedad (%)
2018-01-22 23:00:00 11.6 2 Sudeste 5 Sudoeste 0.6 -- -- 99
2018-01-22 22:00:00 11.6 3 Sudeste 6 Oeste 0.8 -- -- 98
2018-01-22 21:00:00 11.8 3 Sudeste 8 Sudoeste 0.8 -- -- 97
2018-01-22 20:00:00 11.8 3 Sur 12 Sur 0.4 -- -- 96
2018-01-22 19:00:00 12 4 Sudoeste 10 Sudoeste 0.2 -- -- 95
2018-01-22 18:00:00 12.2 3 Sur 7 Sudoeste 0.2 -- -- 93
2018-01-22 17:00:00 13.2 2 Este 8 Sudeste 0 -- -- 87
2018-01-22 16:00:00 13.7 3 Sudeste 6 Sudeste 0 -- -- 79
2018-01-22 15:00:00 13.9 3 Sur 14 Oeste 0 -- -- 79
2018-01-22 14:00:00 14.4 6 Oeste 18 Oeste 0 -- -- 74
2018-01-22 13:00:00 13.1 3 Oeste 9 Noroeste 0 -- -- 80
2018-01-22 12:00:00 -- -- -- -- -- -- -- -- --
2018-01-22 11:00:00 11.1 4 Nordeste 7 Sudeste 0 -- -- 97
2018-01-22 10:00:00 9.9 4 Este 7 Sudeste 0 -- -- 99
2018-01-22 09:00:00 9.6 2 Sudoeste 4 Noroeste 0 -- -- 99
2018-01-22 08:00:00 9.6 0 Calma 3 Nordeste 0 -- -- 99
2018-01-22 07:00:00 9.7 0 Calma 3 Sur 0 -- -- 99
2018-01-22 06:00:00 9.8 2 Oeste 3 Noroeste 0 -- -- 98
2018-01-22 05:00:00 10.4 0 Calma 4 Oeste 0 -- -- 98
2018-01-22 04:00:00 10.7 0 Calma 3 Sudoeste 0 -- -- 97
2018-01-22 03:00:00 11.3 0 Calma 3 Oeste 0 -- -- 96
2018-01-22 02:00:00 11.4 0 Calma 5 Sudeste 0 -- -- 96
2018-01-22 01:00:00 11.5 3 Sudoeste 5 Sudoeste 0 -- -- 96
2018-01-22 00:00:00 11.6 3 Sudeste 8 Oeste 0 -- -- 95
2018-01-21 23:00:00 11.8 0 Calma 6 Sur 0 -- -- 94
2018-01-21 22:00:00 12.1 4 Sudoeste 8 Sudoeste 0 -- -- 93
2018-01-21 21:00:00 12.6 2 Sudoeste 9 Sur 0 -- -- 90
2018-01-21 20:00:00 12.9 3 Sudeste 11 Sudoeste 0 -- -- 87
2018-01-21 19:00:00 13.4 5 Sudoeste 20 Sudoeste 0 -- -- 84
2018-01-21 18:00:00 13.5 9 Oeste 23 Sudoeste 0 -- -- 82
2018-01-21 17:00:00 14.2 9 Oeste 23 Oeste 0 -- -- 81
2018-01-21 16:00:00 14.5 6 Oeste 18 Oeste 0 -- -- 81
2018-01-21 15:00:00 13.8 3 Oeste 19 Oeste 0 -- -- 84
2018-01-21 14:00:00 13.6 5 Noroeste 17 Este 0 -- -- 84
2018-01-21 13:00:00 13.4 5 Oeste 27 Oeste 0 -- -- 85
2018-01-21 12:00:00 13 6 Noroeste 19 Noroeste 0 -- -- 88
2018-01-21 11:00:00 12.7 6 Oeste 31 Oeste 0 -- -- 90
2018-01-21 10:00:00 12.4 12 Oeste 39 Sudoeste 0 -- -- 92
2018-01-21 09:00:00 12 9 Oeste 27 Noroeste 0.8 -- -- 95
2018-01-21 08:00:00 11.9 12 Oeste 26 Oeste 2.2 -- -- 96
2018-01-21 07:00:00 11.9 11 Oeste 26 Oeste 2 -- -- 97
2018-01-21 06:00:00 11.9 8 Oeste 31 Sudoeste 1.4 -- -- 97
2018-01-21 05:00:00 12 9 Oeste 27 Oeste 0.8 -- -- 96
2018-01-21 04:00:00 12.1 10 Oeste 27 Oeste 0.8 -- -- 95
2018-01-21 03:00:00 12.3 10 Oeste 27 Noroeste 0.6 -- -- 93
2018-01-21 02:00:00 12.3 12 Oeste 39 Oeste 0.2 -- -- 91
2018-01-21 01:00:00 12.6 10 Noroeste 36 Oeste 0 -- -- 89
2018-01-21 00:00:00 12.5 11 Noroeste 26 Noroeste 0 -- -- 90
2018-01-20 23:00:00 12.5 9 Noroeste 30 Sudoeste 0 -- -- 89
2018-01-20 22:00:00 12.5 13 Noroeste 36 Noroeste 0.2 -- -- 90
2018-01-20 21:00:00 12.2 9 Oeste 22 Oeste 0 -- -- 93
2018-01-20 20:00:00 11.7 4 Oeste 11 Oeste 0.4 -- -- 96
2018-01-20 19:00:00 11.5 2 Este 5 Sudeste 0.2 -- -- 96
2018-01-20 18:00:00 11.5 0 Calma 6 Noroeste 0.2 -- -- 95
2018-01-20 17:00:00 11.3 2 Sur 11 Sudoeste 0 -- -- 96
2018-01-20 16:00:00 10.5 5 Sudeste 10 Sudeste 0.6 -- -- 97
2018-01-20 15:00:00 10.7 4 Noroeste 20 Sudoeste 0.2 -- -- 93
2018-01-20 14:00:00 11.4 12 Oeste 31 Sudoeste 0.2 -- -- 84
2018-01-20 13:00:00 11.6 7 Oeste 22 Sudoeste 0 -- -- 74
2018-01-20 12:00:00 9.9 3 Noroeste 8 Sudeste 0 -- -- 89
2018-01-20 11:00:00 9.6 3 Sudeste 8 Sudeste 0 -- -- 89
2018-01-20 10:00:00 7.7 3 Sur 5 Sur 0 -- -- 96
2018-01-20 09:00:00 7.3 0 Calma 8 Sudeste 0 -- -- 96
2018-01-20 08:00:00 7.5 2 Este 10 Sudeste 0 -- -- 96
2018-01-20 07:00:00 7.5 3 Sudeste 9 Este 0 -- -- 98
2018-01-20 06:00:00 7.1 0 Calma 5 Sudoeste 0 -- -- 99
2018-01-20 05:00:00 7.2 0 Calma 5 Sudoeste 0 -- -- 98
2018-01-20 04:00:00 7.5 0 Calma 8 Sudoeste 0 -- -- 97
2018-01-20 03:00:00 8 0 Calma 5 Sudoeste 0 -- -- 97
2018-01-20 02:00:00 8.6 3 Sudoeste 8 Oeste 0 -- -- 95
2018-01-20 01:00:00 8.8 4 Sudoeste 8 Sur 0 -- -- 93
2018-01-20 00:00:00 8.9 4 Oeste 15 Noroeste 0 -- -- 95
2018-01-19 23:00:00 8.9 3 Sudoeste 8 Oeste 0 -- -- 95
2018-01-19 22:00:00 9.1 5 Oeste 22 Noroeste 1 -- -- 93
2018-01-19 21:00:00 8.9 6 Sudoeste 12 Oeste 0.2 -- -- 94
2018-01-19 20:00:00 9.1 7 Noroeste 23 Oeste 1 -- -- 93
2018-01-19 19:00:00 9.4 6 Oeste 13 Oeste 0.8 -- -- 92
2018-01-19 18:00:00 9.5 5 Sudoeste 16 Oeste 0.2 -- -- 90
2018-01-19 17:00:00 9.6 9 Oeste 17 Oeste 0.2 -- -- 89
2018-01-19 16:00:00 9.5 5 Oeste 16 Sudoeste 0.4 -- -- 92
2018-01-19 15:00:00 9.9 7 Oeste 17 Noroeste 0.2 -- -- 89
2018-01-19 14:00:00 10 10 Oeste 28 Norte 0 -- -- 88
2018-01-19 13:00:00 10.1 2 Noroeste 5 Sudeste 0.4 -- -- 97
2018-01-19 12:00:00 9.8 3 Sur 9 Sudoeste 0.4 -- -- 97
2018-01-19 11:00:00 9.7 4 Sudoeste 9 Sudoeste 1 -- -- 98
2018-01-19 10:00:00 9.4 0 Calma 5 Este 1.2 -- -- 98
2018-01-19 09:00:00 9.4 3 Sudeste 7 Sur 0 -- -- 97
2018-01-19 08:00:00 9.6 2 Oeste 14 Oeste 0 -- -- 95
2018-01-19 07:00:00 9.2 6 Sudoeste 12 Sudoeste 0.8 -- -- 100
2018-01-19 06:00:00 9.1 3 Oeste 6 Sur 0 -- -- 99
2018-01-19 05:00:00 9.2 4 Sudeste 8 Sudoeste 0.2 -- -- 98
2018-01-19 04:00:00 9 2 Nordeste 9 Sudoeste 0 -- -- 96
2018-01-19 03:00:00 8.8 2 Este 9 Oeste 0 -- -- 95
2018-01-19 02:00:00 8.7 3 Sur 8 Oeste 0 -- -- 94
2018-01-19 01:00:00 8.6 3 Sudeste 6 Noroeste 0 -- -- 94
2018-01-19 00:00:00 8.4 0 Calma 5 Este 0 -- -- 94
2018-01-18 23:00:00 8.3 2 Sudeste 4 Sudoeste 0 -- -- 93
2018-01-18 22:00:00 8.3 2 Oeste 6 Oeste 0 -- -- 93
2018-01-18 21:00:00 8.1 4 Sur 13 Sudeste 0 -- -- 94
2018-01-18 20:00:00 8.4 3 Sur 6 Sudeste 0 -- -- 92
2018-01-18 19:00:00 8.9 2 Sudoeste 8 Norte 0 -- -- 89
2018-01-18 18:00:00 9.7 4 Este 13 Norte 0 -- -- 86
2018-01-18 17:00:00 10.6 5 Nordeste 21 Norte 0 -- -- 80
2018-01-18 16:00:00 12.7 5 Norte 13 Norte 0 -- -- 69
2018-01-18 15:00:00 13.1 3 Sur 6 Sur 0 -- -- 67
2018-01-18 14:00:00 11.4 3 Sudoeste 8 Sudoeste 0 -- -- 75
2018-01-18 13:00:00 7.9 4 Sudoeste 6 Sudeste 0 -- -- 91
2018-01-18 12:00:00 6.3 3 Este 6 Sudeste 0 -- -- 100
2018-01-18 11:00:00 4.1 4 Oeste 9 Oeste 0 -- -- 100
2018-01-18 10:00:00 2.8 2 Este 7 Oeste 0 -- -- 100
2018-01-18 09:00:00 2.6 3 Oeste 6 Sudoeste 0 -- -- 100
2018-01-18 08:00:00 2.7 2 Sur 9 Sudoeste 0 -- -- 100
2018-01-18 07:00:00 3.1 3 Sur 6 Sudoeste 0 -- -- 100
2018-01-18 06:00:00 3.5 3 Sur 5 Sudeste 0 -- -- 100
2018-01-18 05:00:00 4.1 2 Este 5 Este 0 -- -- 99
2018-01-18 04:00:00 4.9 2 Sudoeste 5 Sudoeste 0 -- -- 100
2018-01-18 03:00:00 5.3 4 Sudoeste 6 Sudoeste 0 -- -- 99
2018-01-18 02:00:00 5.8 2 Sudeste 4 Este 0 -- -- 99
2018-01-18 01:00:00 5.9 0 Calma 6 Sudoeste 0 -- -- 98
2018-01-18 00:00:00 6.6 0 Calma 5 Oeste 0 -- -- 96
2018-01-17 23:00:00 7.6 2 Sudeste 5 Sudeste 0 -- -- 96
2018-01-17 22:00:00 8.1 0 Calma 4 Oeste 0.2 -- -- 95
2018-01-17 21:00:00 8.2 2 Sur 6 Sur 0 -- -- 94
2018-01-17 20:00:00 8.6 2 Oeste 4 Sudoeste 0 -- -- 92
2018-01-17 19:00:00 9 3 Sudoeste 15 Sudoeste 0 -- -- 89
2018-01-17 18:00:00 9.4 9 Sudoeste 20 Noroeste 0 -- -- 82
2018-01-17 17:00:00 9.5 6 Oeste 20 Sudoeste 0 -- -- 82
2018-01-17 16:00:00 9.9 5 Noroeste 25 Noroeste 0 -- -- 76
2018-01-17 15:00:00 10.1 7 Oeste 27 Sudoeste 0 -- -- 82
2018-01-17 14:00:00 9.5 11 Oeste 34 Oeste 1.2 -- -- 90
2018-01-17 13:00:00 10 5 Oeste 21 Oeste 0.6 -- -- 85
2018-01-17 12:00:00 10.4 6 Oeste 16 Oeste 0 -- -- 81
2018-01-17 11:00:00 9.4 10 Oeste 29 Oeste 0.4 -- -- 84
2018-01-17 10:00:00 9.6 15 Noroeste 31 Oeste 0.6 -- -- 79
2018-01-17 09:00:00 8.8 4 Oeste 24 Noroeste 1 -- -- 89
2018-01-17 08:00:00 9.1 4 Oeste 25 Noroeste 0.2 -- -- 88
2018-01-17 07:00:00 9.2 6 Noroeste 20 Oeste 2.8 -- -- 93
2018-01-17 06:00:00 9.9 9 Noroeste 24 Oeste 0.4 -- -- 87
2018-01-17 05:00:00 10.2 9 Oeste 25 Oeste 0.8 -- -- 89
2018-01-17 04:00:00 10.9 9 Oeste 42 Noroeste 1 -- -- 90
2018-01-17 03:00:00 11.5 21 Noroeste 48 Noroeste 0.6 -- -- 83
2018-01-17 02:00:00 11.9 15 Noroeste 44 Noroeste 0.4 -- -- 87
2018-01-17 01:00:00 12.1 9 Noroeste 23 Oeste 0.6 -- -- 92
2018-01-17 00:00:00 10.4 3 Sudeste 7 Sudeste 0.2 -- -- 96
2018-01-16 23:00:00 10.7 2 Noroeste 8 Sur 0.2 -- -- 93
2018-01-16 22:00:00 11.1 3 Sudeste 8 Noroeste 0 -- -- 89
2018-01-16 21:00:00 11.3 4 Oeste 14 Sudoeste 0 -- -- 87
2018-01-16 20:00:00 11.5 0 Calma 8 Sudeste 0 -- -- 85
2018-01-16 19:00:00 11.4 2 Sur 4 Sudeste 0 -- -- 88
2018-01-16 18:00:00 11.8 4 Sur 6 Sudeste 0 -- -- 86
2018-01-16 17:00:00 12.2 0 Calma 5 Este 0 -- -- 84
2018-01-16 16:00:00 12.5 0 Calma 6 Sudeste 0 -- -- 84
2018-01-16 15:00:00 12.5 3 Sudeste 5 Sudeste 0 -- -- 85
2018-01-16 14:00:00 11.7 3 Este 5 Este 0 -- -- 88
2018-01-16 13:00:00 10.4 2 Noroeste 6 Oeste 0 -- -- 91
2018-01-16 12:00:00 10 4 Sudoeste 7 Sudoeste 0 -- -- 90
2018-01-16 11:00:00 9.8 0 Calma 4 Sudoeste 0 -- -- 88
2018-01-16 10:00:00 9.9 2 Sudoeste 5 Este 0 -- -- 84
2018-01-16 09:00:00 9.9 3 Sudeste 5 Sudeste 0 -- -- 83
2018-01-16 08:00:00 10.1 3 Sur 7 Este 0 -- -- 78
2018-01-16 07:00:00 10.1 2 Sur 7 Sudeste 0 -- -- 78
2018-01-16 06:00:00 10.2 3 Sudeste 6 Este 0 -- -- 76
2018-01-16 05:00:00 9.9 3 Sudeste 5 Sudeste 0 -- -- 80
2018-01-16 04:00:00 9.9 3 Sudeste 11 Sudeste 0 -- -- 78
2018-01-16 03:00:00 9.5 4 Sudeste 8 Sudeste 0 -- -- 79
2018-01-16 02:00:00 9.1 3 Sudeste 7 Sudoeste 0 -- -- 82
2018-01-16 01:00:00 9.2 0 Calma 12 Este 0 -- -- 80
2018-01-16 00:00:00 9.1 3 Sur 10 Sudeste 0 -- -- 79
2018-01-15 23:00:00 9.3 4 Este 10 Sudeste 0 -- -- 74
2018-01-15 22:00:00 9.1 3 Sudoeste 8 Sudoeste 0 -- -- 75
2018-01-15 21:00:00 9 2 Oeste 10 Sur 0 -- -- 66
2018-01-15 20:00:00 9 3 Sudoeste 11 Sudoeste 0 -- -- 65
2018-01-15 19:00:00 9.1 5 Sudoeste 9 Sudoeste 0 -- -- 62
2018-01-15 18:00:00 9.5 3 Sudoeste 12 Sudoeste 0 -- -- 58
2018-01-15 17:00:00 10 4 Sudoeste 13 Sudoeste 0 -- -- 61
2018-01-15 16:00:00 10.7 4 Sudoeste 12 Oeste 0 -- -- 60
2018-01-15 15:00:00 11 2 Oeste 11 Sudoeste 0 -- -- 63
2018-01-15 14:00:00 10.3 5 Oeste 13 Sudoeste 0 -- -- 68
2018-01-15 13:00:00 9.5 2 Sudoeste 9 Sur 0 -- -- 77
2018-01-15 12:00:00 8.5 3 Sur 6 Sur 0 -- -- 85
2018-01-15 11:00:00 7.5 2 Sudeste 8 Sudeste 0 -- -- 99
2018-01-15 10:00:00 5.3 0 Calma 6 Sudoeste 0 -- -- 100
2018-01-15 09:00:00 5.2 0 Calma 8 Sudoeste 0 -- -- 100
2018-01-15 08:00:00 5.3 0 Calma 4 Oeste 0.2 -- -- 100
2018-01-15 07:00:00 5.2 0 Calma 5 Sudoeste 0 -- -- 99
2018-01-15 06:00:00 5.6 3 Sudoeste 5 Sudeste 0 -- -- 99
2018-01-15 05:00:00 5.8 2 Sudoeste 5 Sudoeste 0 -- -- 99
2018-01-15 04:00:00 5.6 2 Oeste 8 Sudeste 0 -- -- 99
2018-01-15 03:00:00 5.8 4 Sur 9 Sudeste 0.2 -- -- 99
2018-01-15 02:00:00 5.7 2 Este 5 Sudoeste 0.6 -- -- 99
2018-01-15 01:00:00 5.6 3 Sur 6 Sur 0 -- -- 99
2018-01-15 00:00:00 5.6 2 Sudoeste 6 Sudoeste 0 -- -- 98
2018-01-14 23:00:00 5.9 2 Sudoeste 5 Sudoeste 0 -- -- 97
2018-01-14 22:00:00 6.2 2 Nordeste 15 Sudoeste 2.2 -- -- 97
2018-01-14 21:00:00 6.2 3 Sur 23 Sudoeste 3.6 -- -- 97
2018-01-14 20:00:00 6.3 4 Sudoeste 10 Noroeste 0.8 -- -- 95
2018-01-14 19:00:00 6.5 3 Sudoeste 8 Sudeste 2.2 -- -- 98
2018-01-14 18:00:00 6.6 0 Calma 9 Sudoeste 0.4 -- -- 98
2018-01-14 17:00:00 6.8 3 Sur 12 Sur 2 -- -- 97
2018-01-14 16:00:00 6.8 3 Sur 9 Sudeste 2 -- -- 97
2018-01-14 15:00:00 7 2 Sudeste 8 Oeste 1.4 -- -- 94
2018-01-14 14:00:00 7.4 5 Oeste 16 Oeste 0.2 -- -- 89
2018-01-14 13:00:00 7.4 6 Oeste 16 Sudoeste 0.2 -- -- 86
2018-01-14 12:00:00 6.9 9 Oeste 19 Sudoeste 0 -- -- 89
2018-01-14 11:00:00 6.2 6 Sudoeste 11 Sudoeste 0.4 -- -- 98
2018-01-14 10:00:00 5.5 0 Calma 9 Oeste 3.8 -- -- 99
2018-01-14 09:00:00 5.4 2 Sudeste 6 Este 1.4 -- -- 99
2018-01-14 08:00:00 5.3 0 Calma 8 Este 0.2 -- -- 99
2018-01-14 07:00:00 5 4 Sudeste 8 Este 0.8 -- -- 99
2018-01-14 06:00:00 4.8 2 Sudeste 6 Sur 0.8 -- -- 99
2018-01-14 05:00:00 4.7 3 Sudoeste 5 Sudoeste 1.8 -- -- 98
2018-01-14 04:00:00 4.8 0 Calma 7 Sudoeste 2.4 -- -- 98
2018-01-14 03:00:00 4.8 0 Calma 6 Este 1.6 -- -- 97
2018-01-14 02:00:00 4.9 3 Este 6 Este 1.6 -- -- 97
2018-01-14 01:00:00 5 2 Sur 8 Sudoeste 1 -- -- 97
2018-01-14 00:00:00 5.2 4 Sudoeste 10 Sudoeste 1.4 -- -- 94
2018-01-13 23:00:00 5.6 5 Sudoeste 14 Oeste 1.6 -- -- 94
2018-01-13 22:00:00 6 6 Sudoeste 12 Sudoeste 1.2 -- -- 93
2018-01-13 21:00:00 6.2 6 Sudoeste 16 Sudoeste 1 -- -- 90
2018-01-13 20:00:00 6.6 7 Sudoeste 13 Oeste 0.6 -- -- 88
2018-01-13 19:00:00 7.8 5 Sudoeste 13 Sur 0 -- -- 78
2018-01-13 18:00:00 8.9 3 Oeste 12 Sudoeste 0 -- -- 65
2018-01-13 17:00:00 9.2 5 Sur 19 Sudoeste 0 -- -- 64
2018-01-13 16:00:00 9.2 5 Sur 14 Sur 0 -- -- 64
2018-01-13 15:00:00 9.8 3 Este 15 Sudoeste 0 -- -- 61
2018-01-13 14:00:00 9.8 5 Oeste 17 Sur 0 -- -- 61
2018-01-13 13:00:00 9.5 9 Sudoeste 29 Noroeste 0 -- -- 61
2018-01-13 12:00:00 9.7 8 Sudoeste 26 Sudeste 0 -- -- 60
2018-01-13 11:00:00 10 6 Sudeste 19 Este 0 -- -- 57
2018-01-13 10:00:00 8.6 6 Sudeste 22 Este 0 -- -- 63
2018-01-13 09:00:00 8.5 9 Sudeste 24 Sudoeste 0 -- -- 63
2018-01-13 08:00:00 9.2 8 Sudeste 33 Sudeste 0 -- -- 61
2018-01-13 07:00:00 9.2 9 Sur 27 Sur 0 -- -- 62
2018-01-13 06:00:00 9 9 Sur 28 Sudeste 0 -- -- 63
2018-01-13 05:00:00 8.9 6 Sur 26 Sudeste 0 -- -- 63
2018-01-13 04:00:00 8.5 10 Sudeste 26 Sudeste 0 -- -- 66
2018-01-13 03:00:00 7.2 3 Sudoeste 22 Este 0 -- -- 71
2018-01-13 02:00:00 7.4 8 Sudeste 19 Sudeste 0 -- -- 69
2018-01-13 01:00:00 4.5 4 Sudeste 10 Este 0 -- -- 99
2018-01-13 00:00:00 4.7 4 Sudeste 8 Sudeste 0 -- -- 99
2018-01-12 23:00:00 4.7 2 Este 10 Sudeste 0 -- -- 99
2018-01-12 22:00:00 4.7 0 Calma 4 Sudoeste 0 -- -- 98
2018-01-12 21:00:00 5.2 3 Sur 4 Sudeste 0 -- -- 97
2018-01-12 20:00:00 6 2 Sudeste 6 Oeste 0 -- -- 96
2018-01-12 19:00:00 6.8 4 Sudoeste 6 Sudoeste 0 -- -- 94
2018-01-12 18:00:00 8.1 0 Calma 5 Sudoeste 0 -- -- 91
2018-01-12 17:00:00 9.5 3 Sudoeste 4 Sudoeste 0 -- -- 87
2018-01-12 16:00:00 9.8 3 Sudoeste 5 Sudoeste 0 -- -- 83
2018-01-12 15:00:00 10.6 3 Sur 8 Sudoeste 0 -- -- 79
2018-01-12 14:00:00 10.3 0 Calma 5 Sudoeste 0 -- -- 98
2018-01-12 13:00:00 8.2 0 Calma 5 Norte 0 -- -- 100
2018-01-12 12:00:00 6.9 2 Este 6 Sudoeste 0 -- -- 100
2018-01-12 11:00:00 5.9 0 Calma 9 Sur 0 -- -- 100
2018-01-12 10:00:00 5.4 2 Oeste 7 Sudoeste 0 -- -- 100
2018-01-12 09:00:00 4.8 3 Sur 7 Sudeste 0.2 -- -- 100
2018-01-12 08:00:00 4.8 3 Sudeste 12 Sur 0.8 -- -- 100
2018-01-12 07:00:00 4.3 5 Sudoeste 9 Sudoeste 0.4 -- -- 100
2018-01-12 06:00:00 4.3 3 Sudeste 5 Noroeste 0.4 -- -- 100
2018-01-12 05:00:00 4 0 Calma 6 Oeste 0.2 -- -- 100
2018-01-12 04:00:00 4.2 3 Este 7 Sudeste 0.8 -- -- 99
2018-01-12 03:00:00 3.9 2 Oeste 8 Sur 0.6 -- -- 99
2018-01-12 02:00:00 4 5 Sudoeste 8 Sudoeste 0 -- -- 99
2018-01-12 01:00:00 3.9 4 Sudoeste 7 Sudoeste 2 -- -- 99
2018-01-12 00:00:00 3.8 3 Oeste 5 Sur 0.2 -- -- 99
2018-01-11 23:00:00 3.8 2 Sudoeste 4 Sudoeste 0 -- -- 98
2018-01-11 22:00:00 3.6 3 Sudoeste 6 Sudoeste 0 -- -- 98
2018-01-11 21:00:00 3.9 0 Calma 7 Sudoeste 0 -- -- 99
2018-01-11 20:00:00 3.7 4 Sudoeste 7 Sudoeste 0 -- -- 98
2018-01-11 19:00:00 3.5 5 Sur 11 Sudoeste 2.6 -- -- 98
2018-01-11 18:00:00 3.7 4 Sudeste 12 Sudeste 4.8 -- -- 97
2018-01-11 17:00:00 3.8 2 Sudeste 6 Sur 2.6 -- -- 95
2018-01-11 16:00:00 4.1 3 Sudoeste 15 Oeste 2 -- -- 92
2018-01-11 15:00:00 4.8 5 Oeste 18 Oeste 1 -- -- 91
2018-01-11 14:00:00 5.5 8 Noroeste 18 Oeste 1 -- -- 89
2018-01-11 13:00:00 5.7 5 Oeste 17 Oeste 1 -- -- 88
2018-01-11 12:00:00 6.2 3 Sudoeste 19 Sudoeste 0.8 -- -- 88
2018-01-11 11:00:00 6.3 7 Oeste 19 Oeste 0.4 -- -- 83
2018-01-11 10:00:00 5.6 4 Sudoeste 10 Oeste 0 -- -- 86
2018-01-11 09:00:00 5.4 3 Sur 13 Sur 0.4 -- -- 88
2018-01-11 08:00:00 5.3 3 Sudeste 14 Sudoeste 0 -- -- 86
2018-01-11 07:00:00 4.9 4 Sudoeste 14 Oeste 0.2 -- -- 88
2018-01-11 06:00:00 5.1 5 Sudoeste 9 Sudoeste 0.2 -- -- 85
2018-01-11 05:00:00 4.3 3 Sudeste 8 Sudeste 0 -- -- 90
2018-01-11 04:00:00 3.6 4 Sudeste 9 Oeste 0 -- -- 91
2018-01-11 03:00:00 3.6 3 Sur 8 Sudoeste 0 -- -- 91
2018-01-11 02:00:00 4.3 0 Calma 12 Sudoeste 0 -- -- 87
2018-01-11 01:00:00 5.3 4 Sur 10 Sudoeste 0 -- -- 83
2018-01-11 00:00:00 5.9 3 Oeste 7 Este 0 -- -- 80
2018-01-10 23:00:00 6.8 4 Sur 14 Noroeste 0 -- -- 78
2018-01-10 22:00:00 7.5 4 Sudoeste 17 Sudoeste 0 -- -- 78
2018-01-10 21:00:00 7.1 3 Sur 15 Sur 0 -- -- 89
2018-01-10 20:00:00 7.3 6 Noroeste 27 Noroeste 0.8 -- -- 90
2018-01-10 19:00:00 7.4 4 Sur 24 Oeste 1.8 -- -- 92
2018-01-10 18:00:00 9.2 14 Noroeste 32 Sudoeste 4.2 -- -- 84
2018-01-10 17:00:00 11.7 10 Oeste 49 Sudoeste 0 -- -- 62
2018-01-10 16:00:00 11.4 8 Nordeste 23 Sudeste 0 -- -- 62
2018-01-10 15:00:00 11.4 8 Nordeste 29 Sur 0 -- -- 61
2018-01-10 14:00:00 11.9 11 Sudoeste 30 Oeste 0 -- -- 58
2018-01-10 13:00:00 11.1 5 Este 20 Sudoeste 0 -- -- 63
2018-01-10 12:00:00 10.1 6 Sudoeste 18 Este 0 -- -- 70
2018-01-10 11:00:00 7.4 5 Sudeste 15 Sudeste 0 -- -- 82
2018-01-10 10:00:00 6.2 3 Oeste 6 Sudoeste 0 -- -- 86
2018-01-10 09:00:00 6 5 Sudoeste 11 Sudoeste 0 -- -- 86
2018-01-10 08:00:00 6 3 Sudoeste 8 Sudoeste 0 -- -- 84
2018-01-10 07:00:00 6.3 5 Sudoeste 12 Este 0 -- -- 82
2018-01-10 06:00:00 6.6 5 Sudeste 10 Este 0 -- -- 82
2018-01-10 05:00:00 6.1 3 Sur 7 Sudoeste 0 -- -- 84
2018-01-10 04:00:00 6.3 2 Norte 6 Sur 0 -- -- 83
2018-01-10 03:00:00 6.1 0 Calma 7 Sudoeste 0 -- -- 81
2018-01-10 02:00:00 6.6 5 Sudoeste 10 Sudoeste 0 -- -- 78
2018-01-10 01:00:00 6.6 5 Sudeste 17 Sudeste 0 -- -- 78
2018-01-10 00:00:00 7.7 7 Sudeste 18 Este 0 -- -- 72
2018-01-09 23:00:00 7.5 3 Sudeste 19 Este 0 -- -- 75
2018-01-09 22:00:00 7.8 5 Sur 18 Este 0 -- -- 73
2018-01-09 21:00:00 7.2 4 Sur 20 Sudeste 0 -- -- 77
2018-01-09 20:00:00 6.6 7 Sudeste 17 Este 0 -- -- 82
2018-01-09 19:00:00 5.7 10 Sudeste 18 Sudeste 0.6 -- -- 89
2018-01-09 18:00:00 6 7 Sudeste 18 Este 1.2 -- -- 84
2018-01-09 17:00:00 7.4 6 Este 19 Este 0.2 -- -- 64
2018-01-09 16:00:00 9.2 5 Sudeste 27 Sudeste 0 -- -- 49
2018-01-09 15:00:00 9.8 10 Sudoeste 36 Sur 0 -- -- 44
2018-01-09 14:00:00 8.8 7 Este 25 Sudeste 0 -- -- 51
2018-01-09 13:00:00 8.6 7 Este 22 Sudoeste 0 -- -- 54
2018-01-09 12:00:00 7.8 8 Este 22 Este 0 -- -- 55
2018-01-09 11:00:00 7.2 8 Sudeste 21 Sur 0 -- -- 56
2018-01-09 10:00:00 6.9 5 Sur 29 Sudoeste 0 -- -- 59
2018-01-09 09:00:00 3.5 3 Sur 13 Oeste 0 -- -- 80
2018-01-09 08:00:00 2.1 2 Sudoeste 12 Sudoeste 0 -- -- 89
2018-01-09 07:00:00 1.2 2 Sudoeste 9 Noroeste 0 -- -- 95
2018-01-09 06:00:00 1.7 3 Este 12 Sudoeste 0 -- -- 91
2018-01-09 05:00:00 0.9 3 Sudoeste 8 Sudeste 0 -- -- 96
2018-01-09 04:00:00 1 3 Sur 7 Oeste 0 -- -- 96
2018-01-09 03:00:00 0.7 3 Nordeste 8 Sudoeste 0 -- -- 96
2018-01-09 02:00:00 0.9 3 Sudoeste 8 Noroeste 0 -- -- 98
2018-01-09 01:00:00 1.2 3 Sudoeste 6 Sudoeste 0 -- -- 97
2018-01-09 00:00:00 1.3 3 Oeste 7 Oeste 0 -- -- 97
2018-01-08 23:00:00 1.4 2 Noroeste 4 Sudeste 0 -- -- 97
2018-01-08 22:00:00 2.1 2 Sudoeste 5 Sudeste 0 -- -- 95
2018-01-08 21:00:00 2.6 0 Calma 5 Este 0 -- -- 94
2018-01-08 20:00:00 3.3 3 Sur 9 Oeste 0 -- -- 93
2018-01-08 19:00:00 4.2 2 Sudeste 7 Oeste 0 -- -- 89
2018-01-08 18:00:00 5.7 0 Calma 6 Sudoeste 0 -- -- 82
2018-01-08 17:00:00 7.5 6 Sudoeste 9 Oeste 0 -- -- 77
2018-01-08 16:00:00 8.9 3 Sudoeste 5 Sudoeste 0 -- -- 72
2018-01-08 15:00:00 11 3 Sur 6 Sudoeste 0 -- -- 65
2018-01-08 14:00:00 9.3 4 Sudoeste 6 Sudoeste 0 -- -- 75
2018-01-08 13:00:00 6.9 5 Sudoeste 8 Sudoeste 0 -- -- 83
2018-01-08 12:00:00 5.6 0 Calma 6 Sudoeste 0 -- -- 100
2018-01-08 11:00:00 3.9 2 Sur 7 Sudeste 0 -- -- 100
2018-01-08 10:00:00 3.1 2 Sudoeste 8 Sudeste 0 -- -- 100
2018-01-08 09:00:00 2.2 0 Calma 5 Sudeste 0 -- -- 100
2018-01-08 08:00:00 2.1 0 Calma 4 Sudeste 0 -- -- 100
2018-01-08 07:00:00 2.1 0 Calma 4 Noroeste 0 -- -- 100
2018-01-08 06:00:00 2.2 0 Calma 3 Este 0 -- -- 100
2018-01-08 05:00:00 2.3 0 Calma 5 Sudoeste 0 -- -- 100
2018-01-08 04:00:00 2.2 3 Sur 6 Oeste 0 -- -- 100
2018-01-08 03:00:00 2.3 2 Sudeste 5 Oeste 0 -- -- 100
2018-01-08 02:00:00 2.4 2 Este 6 Sudeste 0 -- -- 100
2018-01-08 01:00:00 2.5 3 Sudeste 8 Sudoeste 0 -- -- 100
2018-01-08 00:00:00 2.4 3 Sudeste 6 Sudeste 0 -- -- 100
2018-01-07 23:00:00 2.8 3 Sudeste 8 Este 0 -- -- 100
2018-01-07 22:00:00 3.1 2 Sudeste 8 Sudeste 0 -- -- 100
2018-01-07 21:00:00 3.4 2 Sur 8 Este 0 -- -- 100
2018-01-07 20:00:00 3.7 2 Este 7 Sudoeste 0 -- -- 100
2018-01-07 19:00:00 4.1 4 Sudeste 9 Este 0 -- -- 100
2018-01-07 18:00:00 4.1 4 Sudoeste 8 Sudoeste 0 -- -- 100
2018-01-07 17:00:00 4.4 3 Sudoeste 6 Oeste 0 -- -- 99
2018-01-07 16:00:00 4.7 0 Calma 4 Sudoeste 0 -- -- 99
2018-01-07 15:00:00 4.6 3 Sudeste 8 Oeste 0 -- -- 99
2018-01-07 14:00:00 4.4 4 Sur 10 Este 0 -- -- 100
2018-01-07 13:00:00 4.1 5 Sudoeste 9 Sudoeste 0 -- -- 100
2018-01-07 12:00:00 3.4 4 Sudeste 10 Sudeste 0 -- -- 100
2018-01-07 11:00:00 2.9 4 Sudeste 8 Este 0 -- -- 100
2018-01-07 10:00:00 2.2 0 Calma 9 Sudoeste 0 -- -- 100
2018-01-07 09:00:00 1.7 2 Nordeste 7 Sudeste 0.2 -- -- 100
2018-01-07 08:00:00 1.7 5 Sudeste 7 Sudeste 0.6 -- -- 100
2018-01-07 07:00:00 1.5 3 Sudoeste 5 Sudeste 0 -- -- 100
2018-01-07 06:00:00 1.4 4 Sudeste 6 Sudeste 0 -- -- 100
2018-01-07 05:00:00 1.4 3 Oeste 6 Oeste 0.2 -- -- 100
2018-01-07 04:00:00 1.2 3 Sur 7 Sudoeste 1 -- -- 100
2018-01-07 03:00:00 0.9 2 Sudeste 13 Sur 3.6 -- -- 100
2018-01-07 02:00:00 0.7 3 Oeste 9 Sudeste 3.4 -- -- 100
2018-01-07 01:00:00 0.6 3 Sudoeste 9 Oeste 3.2 -- -- 100
2018-01-07 00:00:00 0.5 3 Sur 13 Sur 2.8 -- -- 100
2018-01-06 23:00:00 0.4 4 Sur 15 Sudoeste 2.8 -- -- 100
2018-01-06 22:00:00 0.3 2 Sudoeste 6 Noroeste 1.8 -- -- 100
2018-01-06 21:00:00 0.3 0 Calma 5 Sudoeste 2.2 -- -- 100
2018-01-06 20:00:00 0.3 0 Calma 4 Sudoeste 3.4 -- -- 99
2018-01-06 19:00:00 0.5 0 Calma 4 Sudoeste 3.6 -- -- 99
2018-01-06 18:00:00 0.5 0 Calma 5 Sudeste 3 -- -- 99
2018-01-06 17:00:00 0.8 0 Calma 8 Sudeste 3.4 -- -- 98
2018-01-06 16:00:00 1.1 4 Oeste 11 Oeste 2.8 -- -- 96
2018-01-06 15:00:00 2.5 4 Norte 13 Noroeste 4.4 -- -- 95
2018-01-06 14:00:00 3.4 3 Nordeste 15 Nordeste 3.8 -- -- 94
2018-01-06 13:00:00 4.3 2 Norte 13 Este 1.4 -- -- 93
2018-01-06 12:00:00 4.9 7 Este 19 Este 1.4 -- -- 91
2018-01-06 11:00:00 5.4 2 Este 5 Este 0.8 -- -- 99
2018-01-06 10:00:00 5.2 2 Sudeste 5 Este 1.2 -- -- 99
2018-01-06 09:00:00 5.3 0 Calma 4 Este 0.6 -- -- 99
2018-01-06 08:00:00 5.3 2 Este 8 Oeste 2 -- -- 99
2018-01-06 07:00:00 5.4 2 Sur 6 Sudeste 2 -- -- 98
2018-01-06 06:00:00 5.4 3 Sur 10 Sur 1.4 -- -- 96
2018-01-06 05:00:00 5.9 4 Sudoeste 9 Sudoeste 1.2 -- -- 95
2018-01-06 04:00:00 6.5 0 Calma 4 Sudoeste 1.6 -- -- 98
2018-01-06 03:00:00 6.7 0 Calma 4 Sudeste 2.4 -- -- 98
2018-01-06 02:00:00 6.9 0 Calma 4 Sudeste 1.6 -- -- 98
2018-01-06 01:00:00 7.1 2 Sur 6 Sudoeste 1.2 -- -- 96
2018-01-06 00:00:00 7.5 4 Sudoeste 7 Sudoeste 1.6 -- -- 96
2018-01-05 23:00:00 7.8 0 Calma 5 Sur 2 -- -- 97
2018-01-05 22:00:00 8.1 0 Calma 13 Sudoeste 0.4 -- -- 95
2018-01-05 21:00:00 8.4 6 Sudoeste 17 Oeste 1 -- -- 92
2018-01-05 20:00:00 8.8 3 Sur 5 Noroeste 0.2 -- -- 98
2018-01-05 19:00:00 8.9 0 Calma 8 Sudoeste 0.8 -- -- 97
2018-01-05 18:00:00 9 2 Sudoeste 6 Sur 0 -- -- 96
2018-01-05 17:00:00 9.2 4 Sur 9 Este 0.2 -- -- 95
2018-01-05 16:00:00 9.2 3 Este 13 Sudoeste 2 -- -- 96
2018-01-05 15:00:00 9.2 4 Sudoeste 11 Sudoeste 3.2 -- -- 95
2018-01-05 14:00:00 9.8 0 Calma 12 Sudoeste 1.8 -- -- 95
2018-01-05 13:00:00 10 4 Oeste 9 Oeste 3 -- -- 95
2018-01-05 12:00:00 10.4 3 Oeste 19 Norte 1.6 -- -- 93
2018-01-05 11:00:00 12.3 6 Oeste 19 Sudoeste 0 -- -- 81
2018-01-05 10:00:00 14.1 4 Sur 33 Oeste 0 -- -- 62
2018-01-05 09:00:00 14.1 5 Nordeste 31 Oeste 0 -- -- 60
2018-01-05 08:00:00 14.1 7 Nordeste 27 Norte 0 -- -- 58
2018-01-05 07:00:00 14.5 7 Este 41 Sudoeste 0 -- -- 57
2018-01-05 06:00:00 14.4 7 Nordeste 36 Sudoeste 0 -- -- 57
2018-01-05 05:00:00 14.3 9 Nordeste 44 Noroeste 0 -- -- 59
2018-01-05 04:00:00 14.8 11 Este 37 Sudoeste 0 -- -- 58
2018-01-05 03:00:00 15 7 Sudoeste 24 Oeste 0 -- -- 56
2018-01-05 02:00:00 14.8 7 Nordeste 27 Oeste 0 -- -- 61
2018-01-05 01:00:00 15.5 12 Oeste 28 Sur 0 -- -- 60
2018-01-05 00:00:00 15.4 6 Oeste 26 Oeste 0 -- -- 62
2018-01-04 23:00:00 15.5 7 Oeste 21 Sudoeste 0 -- -- 62
2018-01-04 22:00:00 15.3 7 Sur 18 Sudeste 0 -- -- 62
2018-01-04 21:00:00 14.2 3 Este 13 Sudeste 0 -- -- 66
2018-01-04 20:00:00 15.1 5 Sudeste 20 Sur 0 -- -- 62
2018-01-04 19:00:00 15.2 5 Este 20 Sur 0 -- -- 64
2018-01-04 18:00:00 15.9 5 Sudeste 12 Sur 0 -- -- 59
2018-01-04 17:00:00 16.8 5 Nordeste 13 Nordeste 0 -- -- 58
2018-01-04 16:00:00 17.5 3 Este 13 Este 0 -- -- 61
2018-01-04 15:00:00 18.3 3 Sur 13 Sudoeste 0 -- -- 57
2018-01-04 14:00:00 17.5 5 Sudoeste 19 Sudeste 0 -- -- 63
2018-01-04 13:00:00 17.1 5 Sur 21 Oeste 0 -- -- 66
2018-01-04 12:00:00 15.7 2 Nordeste 8 Nordeste 0 -- -- 76
2018-01-04 11:00:00 14.9 2 Sur 6 Este 0 -- -- 84
2018-01-04 10:00:00 12.2 4 Sudeste 8 Sudeste 0 -- -- 94
2018-01-04 09:00:00 11.4 2 Norte 10 Sudoeste 0 -- -- 96
2018-01-04 08:00:00 11.7 3 Sudeste 7 Sudeste 0 -- -- 94
2018-01-04 07:00:00 11.7 2 Noroeste 6 Sur 0 -- -- 94
2018-01-04 06:00:00 12.1 2 Sur 8 Nordeste 0 -- -- 93
2018-01-04 05:00:00 12.5 2 Sudeste 6 Este 0 -- -- 95
2018-01-04 04:00:00 12.7 2 Sudeste 6 Noroeste 0 -- -- 98
2018-01-04 03:00:00 12.5 2 Sudeste 8 Sudeste 0 -- -- 98
2018-01-04 02:00:00 12.8 3 Sur 8 Sudeste 0 -- -- 99
2018-01-04 01:00:00 12.9 4 Sudeste 15 Oeste 0 -- -- 99
2018-01-04 00:00:00 13 4 Oeste 8 Oeste 0 -- -- 100
2018-01-03 23:00:00 13 4 Sudeste 10 Oeste 0 -- -- 100
2018-01-03 22:00:00 13.1 2 Oeste 8 Sur 0 -- -- 99
2018-01-03 21:00:00 13.3 4 Sudoeste 6 Oeste 0 -- -- 99
2018-01-03 20:00:00 13.6 3 Sur 8 Sudeste 0.2 -- -- 99
2018-01-03 19:00:00 13.9 4 Sur 8 Sudoeste 0 -- -- 98
2018-01-03 18:00:00 14.2 4 Sudeste 6 Sudeste 0 -- -- 97
2018-01-03 17:00:00 14.7 4 Sur 11 Sur 0.8 -- -- 96
2018-01-03 16:00:00 14.9 4 Sur 7 Sur 1.2 -- -- 95
2018-01-03 15:00:00 15.3 0 Calma 9 Sudoeste 1.2 -- -- 93
2018-01-03 14:00:00 16.4 3 Oeste 8 Noroeste 0.2 -- -- 86
2018-01-03 13:00:00 17.1 3 Sudoeste 8 Oeste 0 -- -- 79
2018-01-03 12:00:00 17.2 3 Sudoeste 16 Sudoeste 0 -- -- 77
2018-01-03 11:00:00 15.1 3 Sudeste 10 Sudeste 0 -- -- 87
2018-01-03 10:00:00 14.2 2 Sudoeste 12 Oeste 0 -- -- 90
2018-01-03 09:00:00 14.2 3 Sudeste 8 Este 0 -- -- 87
2018-01-03 08:00:00 14.3 5 Sur 9 Sur 0 -- -- 86
2018-01-03 07:00:00 13.8 4 Este 9 Noroeste 0 -- -- 87
2018-01-03 06:00:00 13.7 3 Sudeste 8 Sur 0 -- -- 87
2018-01-03 05:00:00 13 2 Sudoeste 8 Noroeste 0 -- -- 90
2018-01-03 04:00:00 12.9 3 Sudeste 6 Sudeste 0 -- -- 89
2018-01-03 03:00:00 12.7 3 Sur 7 Sudoeste 0 -- -- 88
2018-01-03 02:00:00 12.1 2 Sudeste 8 Sudeste 0 -- -- 93
2018-01-03 01:00:00 11.8 4 Sudeste 9 Sur 0 -- -- 94
2018-01-03 00:00:00 11.5 0 Calma 6 Sudeste 0 -- -- 95
2018-01-02 23:00:00 11.7 3 Sudoeste 8 Oeste 0 -- -- 95
2018-01-02 22:00:00 12.1 2 Sudeste 8 Sudoeste 0 -- -- 93
2018-01-02 21:00:00 12.9 5 Sudeste 13 Sudeste 0 -- -- 91
2018-01-02 20:00:00 13 4 Sudeste 9 Sudeste 0 -- -- 91
2018-01-02 19:00:00 13.1 3 Sur 6 Sudeste 0 -- -- 91
2018-01-02 18:00:00 13.2 4 Sudeste 8 Sudeste 0 -- -- 89
2018-01-02 17:00:00 13.7 4 Sur 7 Sudeste 0 -- -- 89
2018-01-02 16:00:00 13.2 3 Sur 9 Sudeste 0 -- -- 91
2018-01-02 15:00:00 12.6 4 Sur 9 Sudoeste 0 -- -- 95
2018-01-02 14:00:00 11.7 4 Sudoeste 10 Oeste 0.6 -- -- 94
2018-01-02 13:00:00 11.3 2 Sur 12 Oeste 0.8 -- -- 95
2018-01-02 12:00:00 11 4 Sudoeste 9 Oeste 2 -- -- 94
2018-01-02 11:00:00 10.7 2 Sur 9 Sudeste 1.2 -- -- 96
2018-01-02 10:00:00 10.7 4 Sur 10 Sudoeste 0.2 -- -- 92
2018-01-02 09:00:00 10.5 4 Sudoeste 8 Sur 0 -- -- 88
2018-01-02 08:00:00 10.1 4 Sur 9 Sudoeste 0 -- -- 92
2018-01-02 07:00:00 9.5 3 Sudeste 12 Oeste 0 -- -- 99
2018-01-02 06:00:00 9.5 4 Sudeste 9 Sudeste 0 -- -- 99
2018-01-02 05:00:00 9.4 0 Calma 11 Oeste 0.2 -- -- 99
2018-01-02 04:00:00 9.6 4 Sudeste 11 Sudeste 2.2 -- -- 99
2018-01-02 03:00:00 9.6 3 Sur 9 Oeste 2.2 -- -- 99
2018-01-02 02:00:00 9.6 3 Sudeste 6 Sudeste 1.8 -- -- 98
2018-01-02 01:00:00 9.8 0 Calma 6 Sudeste 0.2 -- -- 97
2018-01-02 00:00:00 10.1 3 Sudeste 12 Sur 0.2 -- -- 95
2018-01-01 23:00:00 10.4 8 Oeste 27 Oeste 0.4 -- -- 91
2018-01-01 22:00:00 10.7 8 Oeste 31 Norte 0.2 -- -- 89
2018-01-01 21:00:00 10.7 9 Oeste 29 Noroeste 1 -- -- 90
2018-01-01 20:00:00 11.2 14 Oeste 33 Oeste 1.4 -- -- 87
2018-01-01 19:00:00 11.1 14 Noroeste 55 Noroeste 2 -- -- 88
2018-01-01 18:00:00 9.6 8 Sudeste 27 Este 5.6 -- -- 97
2018-01-01 17:00:00 9.6 5 Sudeste 12 Sudeste 2.4 -- -- 95
2018-01-01 16:00:00 10.4 4 Norte 37 Sudoeste 3.8 -- -- 89
2018-01-01 15:00:00 13.4 9 Sudoeste 41 Oeste 0 -- -- 58
2018-01-01 14:00:00 13.3 12 Oeste 46 Sudoeste 0 -- -- 56
2018-01-01 13:00:00 12.7 14 Oeste 35 Oeste 0 -- -- 57
2018-01-01 12:00:00 11.9 14 Oeste 37 Sudeste 0 -- -- 57
2018-01-01 11:00:00 10.4 6 Norte 25 Nordeste 0 -- -- 63
2018-01-01 10:00:00 9.1 6 Este 15 Sudeste 0 -- -- 63
2018-01-01 09:00:00 7.6 6 Sudeste 16 Sudoeste 0 -- -- 69
2018-01-01 08:00:00 6.7 5 Este 14 Sudeste 0 -- -- 71
2018-01-01 07:00:00 5.2 5 Sudeste 12 Este 0 -- -- 75
2018-01-01 06:00:00 5.2 2 Sur 8 Noroeste 0 -- -- 80
2018-01-01 05:00:00 6.1 4 Sur 8 Sudoeste 0 -- -- 77
2018-01-01 04:00:00 7.4 5 Sudeste 13 Sudeste 0 -- -- 71
2018-01-01 03:00:00 7.5 6 Sudeste 15 Este 0 -- -- 69
2018-01-01 02:00:00 6.7 3 Sudeste 10 Sur 0 -- -- 76
2018-01-01 01:00:00 6.8 4 Este 12 Oeste 0 -- -- 79
2018-01-01 00:00:00 6.8 5 Sudoeste 9 Sudeste 0 -- -- 83
2017-12-31 23:00:00 7.4 4 Sudeste 10 Este 0 -- -- 82
2017-12-31 22:00:00 7.9 4 Sur 10 Sudoeste 0 -- -- 83
2017-12-31 21:00:00 8.2 3 Sur 13 Sudeste 0 -- -- 83
2017-12-31 20:00:00 7.7 3 Sudeste 9 Sudeste 0 -- -- 92
2017-12-31 19:00:00 7.8 3 Sur 12 Sudeste 0.8 -- -- 91
2017-12-31 18:00:00 8.1 6 Sudeste 31 Oeste 1.6 -- -- 90
2017-12-31 17:00:00 9.5 12 Oeste 33 Sudoeste 2.8 -- -- 84
2017-12-31 16:00:00 11.1 14 Oeste 38 Sudoeste 2 -- -- 85
2017-12-31 15:00:00 16.3 9 Oeste 42 Noroeste 0 -- -- 51
2017-12-31 14:00:00 16.6 11 Sudoeste 42 Oeste 0 -- -- 49
2017-12-31 13:00:00 16 12 Nordeste 43 Este 0 -- -- 50
2017-12-31 12:00:00 15.5 13 Nordeste 36 Sudoeste 0 -- -- 52
2017-12-31 11:00:00 15.2 8 Norte 34 Nordeste 0 -- -- 53
2017-12-31 10:00:00 14.4 6 Norte 23 Sur 0 -- -- 55
2017-12-31 09:00:00 14.6 10 Este 41 Sudeste 0 -- -- 54
2017-12-31 08:00:00 14.3 9 Norte 42 Sudeste 0 -- -- 56
2017-12-31 07:00:00 13.8 6 Este 31 Este 0 -- -- 58
2017-12-31 06:00:00 13.7 6 Nordeste 19 Este 0 -- -- 59
2017-12-31 05:00:00 14.1 7 Sudoeste 22 Sudeste 0 -- -- 59
2017-12-31 04:00:00 14.3 7 Sur 21 Este 0 -- -- 58
2017-12-31 03:00:00 12.7 5 Sudoeste 10 Sudoeste 0 -- -- 65
2017-12-31 02:00:00 12.2 5 Sur 15 Este 0 -- -- 66
2017-12-31 01:00:00 11.8 3 Sur 7 Este 0 -- -- 70